createdAt,value
2018-01-31T01:52:20.578Z,100640.37
2018-01-31T01:52:21.952Z,100237.20
2018-01-31T01:54:21.778Z,100231.95
2018-01-31T01:56:49.242Z,100224.09
2018-01-31T01:59:16.727Z,100214.94
2018-01-31T02:01:44.184Z,100213.59
2018-01-31T03:09:56.704Z,100071.00
2018-01-31T03:12:24.167Z,100068.81
2018-01-31T03:14:51.653Z,100064.08
2018-01-31T03:17:19.121Z,100053.08
2018-01-31T03:19:46.615Z,100040.45
2018-01-31T03:22:14.066Z,100033.05
2018-01-31T03:24:42.392Z,100032.68
2018-01-31T03:27:09.842Z,100037.41
2018-01-31T03:29:37.327Z,100029.91
2018-01-31T03:32:04.799Z,100024.30
2018-01-31T03:34:32.309Z,100028.30
2018-01-31T03:36:59.775Z,100021.91
2018-01-31T03:39:27.268Z,100016.53
2018-01-31T03:41:54.723Z,100007.36
2018-01-31T03:44:22.180Z,100013.59
2018-01-31T03:46:49.680Z,100014.27
2018-01-31T03:49:17.132Z,100006.30
2018-01-31T03:51:44.613Z,99994.97
2018-01-31T03:54:12.071Z,99987.48
2018-01-31T03:56:39.554Z,99991.21
2018-01-31T03:59:07.002Z,99980.73
2018-01-31T04:01:34.467Z,99979.90
2018-01-31T04:04:01.929Z,99974.64
2018-01-31T04:06:29.400Z,99968.17
2018-01-31T04:08:56.845Z,99971.78
2018-01-31T04:11:24.337Z,99963.44
2018-01-31T04:13:51.791Z,99972.56
2018-01-31T04:16:19.254Z,99971.41
2018-01-31T04:18:46.706Z,99971.56
2018-01-31T04:21:14.185Z,99951.06
2018-01-31T04:23:41.631Z,99947.81
2018-01-31T04:26:09.104Z,99944.41
2018-01-31T04:28:36.562Z,99943.20
2018-01-31T04:31:04.032Z,99947.52
2018-01-31T04:33:31.497Z,99936.70
2018-01-31T04:35:58.987Z,99943.00
2018-01-31T04:38:26.438Z,99930.56
2018-01-31T04:40:53.913Z,99927.06
2018-01-31T04:43:21.368Z,99911.94
2018-01-31T04:45:48.839Z,99909.33
2018-01-31T04:48:16.288Z,99905.13
2018-01-31T04:50:43.763Z,99914.28
2018-01-31T04:53:11.206Z,99903.25
2018-01-31T04:55:38.685Z,99893.79
2018-01-31T04:58:06.134Z,99892.53
2018-01-31T05:00:33.668Z,99897.31
2018-01-31T05:03:01.122Z,99896.30
2018-01-31T05:05:28.599Z,99883.44
2018-01-31T05:07:56.076Z,99877.06
2018-01-31T05:10:23.530Z,99878.47
2018-01-31T05:12:51.008Z,99875.17
2018-01-31T05:15:18.454Z,99869.75
2018-01-31T05:17:45.914Z,99868.02
2018-01-31T05:20:13.366Z,99865.14
2018-01-31T05:22:40.838Z,99859.36
2018-01-31T05:25:08.282Z,99857.92
2018-01-31T05:27:35.758Z,99851.36
2018-01-31T05:30:03.223Z,99850.73
2018-01-31T05:32:30.700Z,99849.19
2018-01-31T05:34:58.158Z,99844.65
2018-01-31T05:37:25.632Z,99846.65
2018-01-31T05:39:53.086Z,99842.00
2018-01-31T05:42:20.550Z,99840.20
2018-01-31T05:44:48.040Z,99838.34
2018-01-31T05:47:15.623Z,99835.34
2018-01-31T05:49:43.075Z,99828.90
2018-01-31T05:52:10.551Z,99826.37
2018-01-31T05:54:38.002Z,99821.95
2018-01-31T05:57:05.479Z,99818.54
2018-01-31T05:59:32.926Z,99817.01
2018-01-31T06:02:00.401Z,99820.83
2018-01-31T06:04:27.856Z,99816.09
2018-01-31T06:06:55.333Z,99813.66
2018-01-31T06:09:22.792Z,99803.29
2018-01-31T06:11:50.267Z,99802.75
2018-01-31T06:14:17.734Z,99804.28
2018-01-31T06:16:51.832Z,99798.69
2018-01-31T06:19:19.286Z,99801.09
2018-01-31T06:21:46.777Z,99794.97
2018-01-31T06:24:14.228Z,99790.14
2018-01-31T06:26:41.774Z,99788.80
2018-01-31T06:29:09.235Z,99779.16
2018-01-31T06:31:36.716Z,99784.19
2018-01-31T06:34:04.170Z,99779.50
2018-01-31T06:36:31.637Z,99780.80
2018-01-31T06:38:59.109Z,99764.41
2018-01-31T06:41:26.595Z,99772.75
2018-01-31T06:43:54.070Z,99770.63
2018-01-31T06:46:21.522Z,99765.10
2018-01-31T06:48:49.003Z,99763.67
2018-01-31T06:51:16.471Z,99767.30
2018-01-31T06:53:43.948Z,99758.48
2018-01-31T06:56:11.413Z,99760.92
2018-01-31T06:58:38.899Z,99757.14
2018-01-31T07:01:06.354Z,99742.13
2018-01-31T07:03:33.860Z,99744.40
2018-01-31T07:06:01.307Z,99742.03
2018-01-31T07:08:28.783Z,99732.86
2018-01-31T07:10:56.298Z,99736.91
2018-01-31T07:13:23.759Z,99729.72
2018-01-31T07:15:51.218Z,99732.29
2018-01-31T07:18:18.692Z,99724.57
2018-01-31T07:20:46.147Z,99718.36
2018-01-31T07:23:13.630Z,99717.98
2018-01-31T07:25:41.091Z,99717.55
2018-01-31T07:28:08.576Z,99708.93
2018-01-31T07:30:36.069Z,99713.94
2018-01-31T07:33:03.543Z,99707.98
2018-01-31T07:35:31.023Z,99704.27
2018-01-31T07:37:58.494Z,99703.08
2018-01-31T07:40:25.959Z,99697.26
2018-01-31T07:42:53.454Z,99695.17
2018-01-31T07:45:20.927Z,99682.73
2018-01-31T07:47:48.398Z,99686.81
2018-01-31T07:50:15.860Z,99681.33
2018-01-31T07:52:43.345Z,99675.83
2018-01-31T07:55:10.809Z,99671.21
2018-01-31T07:57:38.309Z,99665.70
2018-01-31T08:00:05.772Z,99659.94
2018-01-31T08:02:33.270Z,99660.09
2018-01-31T08:05:00.735Z,99659.86
2018-01-31T08:07:28.249Z,99654.56
2018-01-31T08:09:55.730Z,99653.64
2018-01-31T08:12:23.182Z,99653.77
2018-01-31T08:14:50.663Z,99646.25
2018-01-31T08:17:18.132Z,99643.47
2018-01-31T08:19:45.607Z,99638.05
2018-01-31T08:22:13.075Z,99620.77
2018-01-31T08:24:40.559Z,99608.23
2018-01-31T08:27:08.019Z,99604.89
2018-01-31T08:29:35.490Z,99602.42
2018-01-31T08:32:02.950Z,99611.87
2018-01-31T08:34:30.433Z,99610.30
2018-01-31T08:36:57.892Z,99601.22
2018-01-31T08:39:25.381Z,99603.52
2018-01-31T08:41:52.839Z,99590.93
2018-01-31T08:44:20.362Z,99591.86
2018-01-31T08:46:47.815Z,99583.45
2018-01-31T08:49:15.305Z,99591.19
2018-01-31T08:51:42.763Z,99577.25
2018-01-31T08:54:10.239Z,99578.88
2018-01-31T08:56:37.707Z,99577.13
2018-01-31T08:59:06.102Z,99571.98
2018-01-31T09:01:33.558Z,99577.39
2018-01-31T09:04:01.040Z,99561.01
2018-01-31T09:06:28.508Z,99563.98
2018-01-31T09:08:55.990Z,99573.49
2018-01-31T09:11:23.453Z,99558.34
2018-01-31T09:13:50.931Z,99558.44
2018-01-31T09:16:18.399Z,99548.55
2018-01-31T09:18:45.879Z,99547.07
2018-01-31T09:21:13.343Z,99527.70
2018-01-31T09:23:40.826Z,99527.13
2018-01-31T09:26:08.298Z,99528.27
2018-01-31T09:28:35.751Z,99525.12
2018-01-31T09:31:03.229Z,99522.79
2018-01-31T09:33:30.687Z,99524.16
2018-01-31T09:35:58.172Z,99518.73
2018-01-31T09:38:25.636Z,99515.05
2018-01-31T09:40:53.120Z,99499.07
2018-01-31T09:43:20.580Z,99506.95
2018-01-31T09:45:48.072Z,99494.73
2018-01-31T09:48:15.541Z,99496.80
2018-01-31T09:50:43.058Z,99494.07
2018-01-31T09:53:10.501Z,99492.34
2018-01-31T09:55:37.980Z,99485.70
2018-01-31T09:58:05.463Z,99479.56
2018-01-31T10:00:32.935Z,99482.19
2018-01-31T10:03:00.419Z,99472.24
2018-01-31T10:05:27.896Z,99471.84
2018-01-31T10:07:55.352Z,99461.80
2018-01-31T10:10:22.827Z,99466.70
2018-01-31T10:12:50.290Z,99453.43
2018-01-31T10:15:17.771Z,99451.13
2018-01-31T10:17:45.228Z,99457.09
2018-01-31T10:20:12.711Z,99456.30
2018-01-31T10:22:40.177Z,99438.53
2018-01-31T10:25:07.661Z,99436.50
2018-01-31T10:27:35.122Z,99436.22
2018-01-31T10:30:02.594Z,99439.48
2018-01-31T10:32:30.064Z,99432.83
2018-01-31T10:34:57.542Z,99428.08
2018-01-31T10:37:24.998Z,99412.61
2018-01-31T10:39:52.479Z,99418.44
2018-01-31T10:42:19.943Z,99411.28
2018-01-31T10:44:47.420Z,99393.13
2018-01-31T10:47:14.877Z,99395.44
2018-01-31T10:49:42.367Z,99395.70
2018-01-31T10:52:09.878Z,99390.66
2018-01-31T10:57:28.912Z,99361.78
2018-01-31T10:59:32.378Z,99363.17
2018-01-31T11:01:59.853Z,99361.37
2018-01-31T11:04:27.310Z,99352.73
2018-01-31T11:06:54.901Z,99352.45
2018-01-31T11:09:22.354Z,99348.80
2018-01-31T11:11:49.835Z,99339.16
2018-01-31T11:14:17.303Z,99335.94
2018-01-31T11:16:44.779Z,99335.64
2018-01-31T11:19:12.236Z,99335.26
2018-01-31T11:21:39.792Z,99305.30
2018-01-31T11:24:07.243Z,99321.71
2018-01-31T11:26:34.722Z,99306.80
2018-01-31T11:29:02.195Z,99299.06
2018-01-31T11:31:29.667Z,99293.80
2018-01-31T11:33:57.123Z,99294.46
2018-01-31T11:36:24.683Z,99281.88
2018-01-31T11:38:52.140Z,99276.97
2018-01-31T11:41:19.667Z,99271.17
2018-01-31T11:43:47.199Z,99272.91
2018-01-31T11:46:14.684Z,99265.88
2018-01-31T11:48:42.154Z,99244.73
2018-01-31T11:51:09.626Z,99240.55
2018-01-31T11:53:37.083Z,99249.49
2018-01-31T11:56:04.560Z,99239.47
2018-01-31T11:58:32.019Z,99235.41
2018-01-31T12:00:59.494Z,99232.41
2018-01-31T12:03:26.951Z,99207.20
2018-01-31T12:05:54.426Z,99208.72
2018-01-31T12:08:21.879Z,99203.14
2018-01-31T12:10:49.343Z,99183.39
2018-01-31T12:16:36.370Z,99163.31
2018-01-31T12:22:16.514Z,99164.09
2018-01-31T12:24:55.714Z,99160.07
2018-01-31T12:27:34.963Z,99149.36
2018-01-31T12:30:14.014Z,99148.94
2018-01-31T12:32:53.247Z,99140.81
2018-01-31T12:35:32.962Z,99138.63
2018-01-31T12:38:12.284Z,99129.55
2018-01-31T12:40:39.190Z,99130.73
2018-01-31T12:43:06.140Z,99121.65
2018-01-31T12:45:33.080Z,99117.17
2018-01-31T12:48:06.395Z,99107.27
2018-01-31T12:50:45.699Z,99095.19
2018-01-31T12:53:24.976Z,99076.87
2018-01-31T12:56:04.058Z,99084.11
2018-01-31T12:58:43.194Z,99079.48
2018-01-31T13:01:22.416Z,99083.18
2018-01-31T13:04:02.009Z,99079.52
2018-01-31T13:06:41.371Z,99062.86
2018-01-31T13:09:18.559Z,99053.80
2018-01-31T13:11:57.910Z,99065.98
2018-01-31T13:14:37.168Z,99057.44
2018-01-31T13:17:16.409Z,99034.95
2018-01-31T13:19:55.576Z,99033.25
2018-01-31T13:22:34.812Z,99027.00
2018-01-31T13:25:14.860Z,99023.66
2018-01-31T13:27:59.896Z,99026.39
2018-01-31T13:30:39.188Z,99019.67
2018-01-31T13:33:24.277Z,99016.23
2018-01-31T13:39:05.350Z,99005.43
2018-01-31T13:41:44.631Z,98994.36
2018-01-31T13:44:23.906Z,98989.52
2018-01-31T13:47:03.163Z,98987.34
2018-01-31T13:49:42.303Z,98975.83
2018-01-31T13:52:27.294Z,98963.36
2018-01-31T13:58:08.122Z,98957.30
2018-01-31T14:00:47.289Z,98952.70
2018-01-31T14:03:26.412Z,98942.13
2018-01-31T14:06:05.557Z,98940.36
2018-01-31T14:08:44.874Z,98935.52
2018-01-31T14:11:24.007Z,98929.29
2018-01-31T14:14:03.168Z,98923.76
2018-01-31T14:16:42.168Z,98932.83
2018-01-31T14:19:21.332Z,98929.58
2018-01-31T14:22:00.553Z,98926.47
2018-01-31T14:24:39.778Z,98922.12
2018-01-31T14:27:19.079Z,98923.52
2018-01-31T14:29:58.280Z,98919.46
2018-01-31T14:32:37.414Z,98917.45
2018-01-31T14:35:16.607Z,98916.35
2018-01-31T14:37:43.529Z,98906.11
2018-01-31T14:40:10.468Z,98909.51
2018-01-31T14:42:37.383Z,98906.80
2018-01-31T14:45:04.298Z,98898.16
2018-01-31T14:47:31.273Z,98898.97
2018-01-31T14:49:59.178Z,98905.61
2018-01-31T14:52:26.107Z,98905.48
2018-01-31T14:54:53.018Z,98902.38
2018-01-31T14:57:19.946Z,98902.78
2018-01-31T14:59:46.858Z,98898.80
2018-01-31T15:02:13.787Z,98899.57
2018-01-31T15:04:40.700Z,98889.25
2018-01-31T15:07:07.699Z,98893.55
2018-01-31T15:09:34.608Z,98905.37
2018-01-31T15:12:01.590Z,98891.32
2018-01-31T15:14:28.491Z,98894.83
2018-01-31T15:16:55.402Z,98887.80
2018-01-31T15:19:22.336Z,98886.28
2018-01-31T15:21:49.255Z,98885.17
2018-01-31T15:24:16.190Z,98870.86
2018-01-31T15:26:43.111Z,98867.22
2018-01-31T15:29:10.047Z,98865.05
2018-01-31T15:31:36.995Z,98842.55
2018-01-31T15:34:03.945Z,98866.13
2018-01-31T15:36:30.850Z,98854.02
2018-01-31T15:38:57.791Z,98849.03
2018-01-31T15:41:24.700Z,98856.42
2018-01-31T15:43:51.634Z,98845.23
2018-01-31T15:46:18.548Z,98847.79
2018-01-31T15:48:45.510Z,98855.20
2018-01-31T15:51:12.455Z,98851.80
2018-01-31T15:53:39.398Z,98851.71
2018-01-31T15:56:06.328Z,98862.36
2018-01-31T15:58:33.262Z,98867.20
2018-01-31T16:01:00.170Z,98868.81
2018-01-31T16:03:27.099Z,98878.06
2018-01-31T16:05:54.024Z,98866.03
2018-01-31T16:08:20.954Z,98876.49
2018-01-31T16:10:47.880Z,98874.16
2018-01-31T16:13:14.887Z,98854.88
2018-01-31T16:15:41.804Z,98864.06
2018-01-31T16:18:09.270Z,98858.95
2018-01-31T16:20:48.423Z,98870.59
2018-01-31T16:23:15.890Z,98842.83
2018-01-31T16:25:43.336Z,98877.99
2018-01-31T16:31:09.859Z,98872.09
2018-01-31T16:33:37.330Z,98873.41
2018-01-31T16:36:04.778Z,98867.17
2018-01-31T16:38:32.263Z,98860.54
2018-01-31T16:41:00.060Z,98859.31
2018-01-31T16:43:27.515Z,98863.81
2018-01-31T16:45:54.992Z,98853.31
2018-01-31T16:48:22.439Z,98861.65
2018-01-31T16:50:49.915Z,98862.84
2018-01-31T16:53:17.367Z,98862.38
2018-01-31T16:55:45.061Z,98863.14
2018-01-31T16:58:12.517Z,98856.61
2018-01-31T17:00:39.987Z,98852.70
2018-01-31T17:03:07.443Z,98849.89
2018-01-31T17:05:34.907Z,98850.45
2018-01-31T17:08:02.353Z,98842.02
2018-01-31T17:10:29.819Z,98836.86
2018-01-31T17:12:57.277Z,98827.50
2018-01-31T17:15:24.747Z,98821.56
2018-01-31T17:17:52.195Z,98820.56
2018-01-31T17:20:19.664Z,98810.89
2018-01-31T17:22:47.124Z,98792.69
2018-01-31T17:25:14.591Z,98791.28
2018-01-31T17:27:42.054Z,98786.28
2018-01-31T17:30:09.531Z,98780.73
2018-01-31T17:32:36.988Z,98779.30
2018-01-31T17:35:04.462Z,98766.63
2018-01-31T17:37:31.915Z,98755.17
2018-01-31T17:39:59.384Z,98736.88
2018-01-31T17:42:26.839Z,98743.16
2018-01-31T17:44:54.306Z,98743.13
2018-01-31T17:47:21.754Z,98734.13
2018-01-31T17:49:49.219Z,98735.06
2018-01-31T17:52:16.691Z,98739.27
2018-01-31T17:54:44.156Z,98734.39
2018-01-31T17:57:11.608Z,98731.59
2018-01-31T17:59:39.082Z,98738.42
2018-01-31T18:02:06.539Z,98742.45
2018-01-31T18:04:34.007Z,98737.95
2018-01-31T18:07:01.483Z,98739.73
2018-01-31T18:12:02.807Z,98722.20
2018-01-31T18:14:30.256Z,98739.52
2018-01-31T18:16:57.727Z,98728.26
2018-01-31T18:19:25.185Z,98734.05
2018-01-31T18:21:52.656Z,98740.59
2018-01-31T18:24:20.111Z,98725.61
2018-01-31T18:26:47.612Z,98724.03
2018-01-31T18:29:15.059Z,98714.04
2018-01-31T18:31:42.523Z,98707.61
2018-01-31T18:34:09.975Z,98698.03
2018-01-31T18:36:37.443Z,98710.59
2018-01-31T18:39:04.883Z,98723.36
2018-01-31T18:41:32.356Z,98717.57
2018-01-31T18:44:02.027Z,98708.33
2018-01-31T18:46:29.665Z,98702.56
2018-01-31T18:48:57.119Z,98704.16
2018-01-31T18:51:24.626Z,98692.87
2018-01-31T18:53:52.104Z,98701.31
2018-01-31T18:56:19.584Z,98699.33
2018-01-31T18:58:47.050Z,98690.11
2018-01-31T19:01:14.555Z,98685.28
2018-01-31T19:03:42.024Z,98680.31
2018-01-31T19:06:09.495Z,98678.03
2018-01-31T19:08:36.951Z,98680.19
2018-01-31T19:11:04.437Z,98674.06
2018-01-31T19:13:31.920Z,98683.19
2018-01-31T19:15:59.405Z,98693.11
2018-01-31T19:18:26.882Z,98688.55
2018-01-31T19:20:54.363Z,98683.88
2018-01-31T19:23:21.835Z,98681.72
2018-01-31T19:25:49.333Z,98690.29
2018-01-31T19:28:16.835Z,98683.53
2018-01-31T19:30:44.339Z,98675.61
2018-01-31T19:33:11.817Z,98659.45
2018-01-31T19:35:39.274Z,98659.45
2018-01-31T19:38:06.771Z,98662.02
2018-01-31T19:40:40.891Z,98652.86
2018-01-31T19:43:08.378Z,98660.12
2018-01-31T19:45:35.840Z,98652.20
2018-01-31T19:48:03.367Z,98657.64
2018-01-31T19:50:30.840Z,98662.14
2018-01-31T19:53:04.183Z,98657.23
2018-01-31T19:55:31.658Z,98653.98
2018-01-31T19:57:59.185Z,98649.15
2018-01-31T20:00:26.672Z,98639.55
2018-01-31T20:02:54.184Z,98638.61
2018-01-31T20:05:22.339Z,98631.83
2018-01-31T20:07:51.751Z,98637.19
2018-01-31T20:10:19.220Z,98635.32
2018-01-31T20:12:46.707Z,98635.01
2018-01-31T20:15:14.246Z,98629.48
2018-01-31T20:17:41.755Z,98628.72
2018-01-31T20:20:09.232Z,98631.94
2018-01-31T20:22:36.736Z,98633.56
2018-01-31T20:25:04.237Z,98638.11
2018-01-31T20:27:49.981Z,98643.77
2018-01-31T20:30:17.551Z,98645.36
2018-01-31T20:32:45.039Z,98652.37
2018-01-31T20:35:12.540Z,98649.44
2018-01-31T20:37:40.040Z,98658.44
2018-01-31T20:40:07.537Z,98655.01
2018-01-31T20:42:35.052Z,98658.17
2018-01-31T20:45:02.564Z,98650.83
2018-01-31T20:47:30.205Z,98655.69
2018-01-31T20:49:57.710Z,98660.32
2018-01-31T20:52:25.208Z,98690.66
2018-01-31T20:54:52.668Z,98691.70
2018-01-31T20:57:20.214Z,98704.64
2018-01-31T20:59:47.663Z,98700.06
2018-01-31T21:02:15.917Z,98703.58
2018-01-31T21:04:43.396Z,98697.81
2018-01-31T21:07:10.893Z,98699.73
2018-01-31T21:09:38.367Z,98697.43
2018-01-31T21:12:05.874Z,98693.53
2018-01-31T21:14:33.358Z,98696.51
2018-01-31T21:17:00.935Z,98689.09
2018-01-31T21:19:28.492Z,98683.39
2018-01-31T21:21:55.951Z,98678.25
2018-01-31T21:24:24.224Z,98680.11
2018-01-31T21:26:51.742Z,98683.42
2018-01-31T21:29:19.288Z,98688.00
2018-01-31T21:31:46.792Z,98695.75
2018-01-31T21:34:14.285Z,98694.52
2018-01-31T21:36:41.762Z,98682.14
2018-01-31T21:39:09.259Z,98689.93
2018-01-31T21:41:36.711Z,98690.20
2018-01-31T21:44:04.183Z,98687.32
2018-01-31T21:46:31.630Z,98669.73
2018-01-31T21:48:59.130Z,98667.35
2018-01-31T21:51:26.582Z,98672.16
2018-01-31T21:53:54.046Z,98682.47
2018-01-31T21:56:21.498Z,98673.13
2018-01-31T21:58:48.969Z,98690.26
2018-01-31T22:01:16.416Z,98676.61
2018-01-31T22:03:43.868Z,98676.72
2018-01-31T22:06:11.351Z,98672.33
2018-01-31T22:08:38.808Z,98658.25
2018-01-31T22:11:06.274Z,98659.19
2018-01-31T22:13:33.722Z,98652.59
2018-01-31T22:16:01.198Z,98652.84
2018-01-31T22:18:28.646Z,98663.98
2018-01-31T22:20:56.122Z,98664.80
2018-01-31T22:23:23.575Z,98655.23
2018-01-31T22:25:51.046Z,98663.88
2018-01-31T22:28:18.491Z,98666.38
2018-01-31T22:30:45.954Z,98658.41
2018-01-31T22:33:13.407Z,98658.36
2018-01-31T22:35:40.883Z,98666.08
2018-01-31T22:38:08.331Z,98660.05
2018-01-31T22:40:35.799Z,98657.40
2018-01-31T22:43:03.243Z,98646.08
2018-01-31T22:45:30.707Z,98652.97
2018-01-31T22:47:58.163Z,98649.47
2018-01-31T22:50:25.634Z,98649.35
2018-01-31T22:52:53.086Z,98640.72
2018-01-31T22:55:20.554Z,98648.84
2018-01-31T22:57:48.004Z,98664.19
2018-01-31T23:00:15.470Z,98668.25
2018-01-31T23:02:42.922Z,98667.95
2018-01-31T23:05:10.400Z,98665.94
2018-01-31T23:07:37.859Z,98670.22
2018-01-31T23:10:05.335Z,98669.33
2018-01-31T23:12:32.783Z,98656.06
2018-01-31T23:15:00.256Z,98663.18
2018-01-31T23:17:33.319Z,98663.33
2018-01-31T23:20:00.795Z,98665.27
2018-01-31T23:22:28.243Z,98661.91
2018-01-31T23:24:55.719Z,98664.45
2018-01-31T23:27:23.171Z,98665.83
2018-01-31T23:29:50.623Z,98673.54
2018-01-31T23:32:18.095Z,98664.72
2018-01-31T23:34:45.543Z,98667.80
2018-01-31T23:37:13.015Z,98657.45
2018-01-31T23:39:40.474Z,98668.36
2018-01-31T23:42:07.957Z,98675.89
2018-01-31T23:44:35.399Z,98674.20
2018-01-31T23:47:02.885Z,98673.54
2018-01-31T23:49:30.346Z,98676.19
2018-01-31T23:51:57.819Z,98675.58
2018-01-31T23:54:25.263Z,98682.84
2018-01-31T23:56:52.735Z,98670.45
2018-01-31T23:59:20.211Z,98669.81
